Time;durP1;ratioP1;P1;durP2;ratioP2;P2;SDS_P1;SDS_P2;PMS_P1;PMS_P2;Temp;Humidity;BMP_temperature;BMP_pressure;BME280_temperature;BME280_humidity;BME280_pressure;Samples;Min_cycle;Max_cycle;Signal;HPM_P1;HPM_P2
2022/03/19 00:00:47;;;;;;;11.18;3.75;;;4.60;99.90;;;;;;4994340;28;20054;-64
2022/03/19 00:03:12;;;;;;;14.20;5.25;;;4.60;99.90;;;;;;4993144;28;20065;-64
2022/03/19 00:05:38;;;;;;;9.43;3.42;;;4.60;99.90;;;;;;4995418;28;20054;-65
2022/03/19 00:08:04;;;;;;;11.15;3.63;;;4.60;99.90;;;;;;4993854;28;20051;-64
2022/03/19 00:10:31;;;;;;;10.35;3.63;;;4.60;99.90;;;;;;4993666;28;20140;-64
2022/03/19 00:12:58;;;;;;;14.20;3.35;;;4.60;99.90;;;;;;4987436;28;20220;-64
2022/03/19 00:15:24;;;;;;;10.40;3.63;;;4.50;99.90;;;;;;4974696;28;20062;-64
2022/03/19 00:17:51;;;;;;;10.90;3.60;;;4.50;99.90;;;;;;4974502;28;20051;-65
2022/03/19 00:20:17;;;;;;;13.15;4.28;;;4.40;99.90;;;;;;4982230;28;20066;-65
2022/03/19 00:22:44;;;;;;;13.95;4.00;;;4.40;99.90;;;;;;4994873;28;20574;-64
2022/03/19 00:25:11;;;;;;;19.02;5.15;;;4.40;99.90;;;;;;4993461;28;20055;-65
2022/03/19 00:27:37;;;;;;;15.98;3.47;;;4.30;99.90;;;;;;4993821;28;20184;-65
2022/03/19 00:30:03;;;;;;;16.08;3.95;;;4.40;99.90;;;;;;4974039;28;20535;-64
2022/03/19 00:32:28;;;;;;;9.48;3.60;;;4.30;99.90;;;;;;4974080;28;20054;-65
2022/03/19 00:34:54;;;;;;;15.10;4.03;;;4.20;99.90;;;;;;4990822;28;20054;-65
2022/03/19 00:37:19;;;;;;;17.40;4.70;;;4.20;99.90;;;;;;4993595;28;20137;-64
2022/03/19 00:39:45;;;;;;;13.05;3.55;;;4.20;99.90;;;;;;4993568;28;20081;-64
2022/03/19 00:42:10;;;;;;;13.43;4.00;;;4.10;99.90;;;;;;4992837;28;20062;-65
2022/03/19 00:44:36;;;;;;;15.38;3.60;;;4.20;99.90;;;;;;4994936;28;20050;-64
2022/03/19 00:47:02;;;;;;;14.40;4.13;;;4.10;99.90;;;;;;4992788;28;20050;-65
2022/03/19 00:49:27;;;;;;;10.65;3.40;;;4.10;99.90;;;;;;4991996;28;20076;-65
2022/03/19 00:51:53;;;;;;;13.32;3.75;;;4.10;99.90;;;;;;4992950;28;20113;-65
2022/03/19 00:54:18;;;;;;;14.73;4.18;;;4.10;99.90;;;;;;4992654;28;20054;-63
2022/03/19 00:56:46;;;;;;;13.93;3.55;;;4.00;99.90;;;;;;4976814;28;20597;-64
2022/03/19 00:59:12;;;;;;;14.95;3.67;;;4.10;99.90;;;;;;4993190;28;20058;-65
2022/03/19 01:01:38;;;;;;;16.15;4.05;;;4.00;99.90;;;;;;4993773;28;20053;-64
2022/03/19 01:04:03;;;;;;;11.13;3.40;;;4.10;99.90;;;;;;4992824;28;20097;-64
2022/03/19 01:06:29;;;;;;;16.70;4.20;;;4.00;99.90;;;;;;4993100;28;20506;-64
2022/03/19 01:08:55;;;;;;;13.02;3.97;;;4.00;99.90;;;;;;4992572;28;20050;-64
2022/03/19 01:11:23;;;;;;;14.55;4.35;;;4.00;99.90;;;;;;4992724;28;20051;-64
2022/03/19 01:13:50;;;;;;;14.55;4.53;;;4.00;99.90;;;;;;4991912;28;20056;-64
2022/03/19 01:16:18;;;;;;;11.75;3.85;;;4.00;99.90;;;;;;4991870;28;20061;-65
2022/03/19 01:18:44;;;;;;;16.83;4.20;;;4.00;99.90;;;;;;4994054;28;20046;-65
2022/03/19 01:21:10;;;;;;;11.38;3.80;;;4.00;99.90;;;;;;4993656;28;20081;-65
2022/03/19 01:23:35;;;;;;;13.60;3.33;;;4.00;99.90;;;;;;4992314;28;20085;-64
2022/03/19 01:26:01;;;;;;;10.93;3.97;;;4.00;99.90;;;;;;4992785;28;20046;-65
2022/03/19 01:28:26;;;;;;;11.95;4.00;;;4.00;99.90;;;;;;4993368;28;20061;-64
2022/03/19 01:30:52;;;;;;;11.05;3.78;;;4.00;99.90;;;;;;4978963;28;20082;-64
2022/03/19 01:33:17;;;;;;;11.95;3.92;;;3.90;99.90;;;;;;4972774;28;20055;-64
2022/03/19 01:35:43;;;;;;;12.73;4.65;;;3.90;99.90;;;;;;4992012;28;20133;-65
2022/03/19 01:38:08;;;;;;;11.77;3.78;;;3.90;99.90;;;;;;4987941;28;20134;-64
2022/03/19 01:40:34;;;;;;;9.68;3.25;;;3.90;99.90;;;;;;4973095;28;20139;-65
2022/03/19 01:43:00;;;;;;;14.07;3.80;;;3.90;99.90;;;;;;4972251;28;20113;-65
2022/03/19 01:45:26;;;;;;;15.68;4.25;;;3.90;99.90;;;;;;4981752;28;20046;-65
2022/03/19 01:47:53;;;;;;;12.55;4.18;;;3.90;99.90;;;;;;4992633;28;20145;-65
2022/03/19 01:50:21;;;;;;;11.68;4.22;;;3.80;99.90;;;;;;4992091;28;20061;-64
2022/03/19 01:52:47;;;;;;;12.65;3.20;;;3.80;99.90;;;;;;4989226;28;20048;-64
2022/03/19 01:55:15;;;;;;;11.30;3.75;;;3.80;99.90;;;;;;4983299;28;20487;-65
2022/03/19 01:57:44;;;;;;;11.43;3.70;;;3.80;99.90;;;;;;4993160;28;20126;-64
2022/03/19 02:00:13;;;;;;;15.38;4.05;;;3.80;99.90;;;;;;4992178;28;20054;-64
2022/03/19 02:02:39;;;;;;;16.00;3.58;;;3.80;99.90;;;;;;5005419;28;20054;-65
2022/03/19 02:05:05;;;;;;;10.15;3.75;;;3.80;99.90;;;;;;4974490;28;20386;-64
2022/03/19 02:07:31;;;;;;;13.05;4.28;;;3.80;99.90;;;;;;4972285;28;20094;-65
2022/03/19 02:09:58;;;;;;;9.13;3.42;;;3.80;99.90;;;;;;4973082;28;20141;-65
2022/03/19 02:12:24;;;;;;;9.55;3.45;;;3.70;99.90;;;;;;4972262;28;20058;-66
2022/03/19 02:14:50;;;;;;;9.88;4.10;;;3.70;99.90;;;;;;4973175;28;20070;-65
2022/03/19 02:17:16;;;;;;;15.30;4.93;;;3.70;99.90;;;;;;4993273;28;20490;-64
2022/03/19 02:19:55;;;;;;;16.00;4.57;;;3.80;99.90;;;;;;4991504;28;20085;-64
2022/03/19 02:22:24;;;;;;;11.05;4.03;;;3.70;99.90;;;;;;4992936;28;20061;-64
2022/03/19 02:27:35;;;;;;;11.88;4.07;;;3.70;99.90;;;;;;4995203;28;20503;-65
2022/03/19 02:30:03;;;;;;;12.43;4.15;;;3.70;99.90;;;;;;5008748;28;20047;-64
2022/03/19 02:32:28;;;;;;;14.40;3.80;;;3.60;99.90;;;;;;4977048;28;20054;-65
2022/03/19 02:34:54;;;;;;;12.45;4.85;;;3.70;99.90;;;;;;4977717;28;20058;-65
2022/03/19 02:37:20;;;;;;;12.93;4.35;;;3.70;99.90;;;;;;4989119;28;20066;-64
2022/03/19 02:39:46;;;;;;;12.73;3.70;;;3.70;99.90;;;;;;4994642;28;20129;-65
2022/03/19 02:42:15;;;;;;;11.80;3.75;;;3.60;99.90;;;;;;4995071;28;20054;-65
2022/03/19 02:44:41;;;;;;;12.95;4.53;;;3.60;99.90;;;;;;4996835;28;20058;-66
2022/03/19 02:47:07;;;;;;;9.43;4.55;;;3.70;99.90;;;;;;4995373;28;20113;-65
2022/03/19 02:49:33;;;;;;;12.18;3.88;;;3.60;99.90;;;;;;4996404;28;20527;-65
2022/03/19 02:51:59;;;;;;;12.27;3.90;;;3.60;99.90;;;;;;4994727;28;20054;-65
2022/03/19 02:54:27;;;;;;;10.13;4.75;;;3.60;99.90;;;;;;4994605;28;20050;-64
2022/03/19 02:56:53;;;;;;;14.68;4.05;;;3.60;99.90;;;;;;4996068;28;20054;-65
2022/03/19 02:59:24;;;;;;;10.85;3.70;;;3.60;99.90;;;;;;5011510;28;20483;-65
2022/03/19 03:01:52;;;;;;;16.10;3.72;;;3.60;99.90;;;;;;4996322;28;20054;-63
2022/03/19 03:04:19;;;;;;;12.38;3.65;;;3.60;99.90;;;;;;4986133;28;20055;-64
2022/03/19 03:06:46;;;;;;;13.40;4.45;;;3.50;99.90;;;;;;4976854;28;20066;-65
2022/03/19 03:09:13;;;;;;;10.13;3.58;;;3.60;99.90;;;;;;4975516;28;20553;-65
2022/03/19 03:11:39;;;;;;;12.57;3.72;;;3.50;99.90;;;;;;4977902;28;20109;-64
2022/03/19 03:14:06;;;;;;;12.95;3.92;;;3.50;99.90;;;;;;4994869;28;20054;-64
2022/03/19 03:16:32;;;;;;;11.88;3.55;;;3.50;99.90;;;;;;4994487;28;20073;-64
2022/03/19 03:19:02;;;;;;;10.57;4.10;;;3.50;99.90;;;;;;4996335;28;20454;-64
2022/03/19 03:21:27;;;;;;;12.35;4.88;;;3.50;99.90;;;;;;4994928;28;20097;-63
2022/03/19 03:23:54;;;;;;;12.68;3.70;;;3.50;99.90;;;;;;4994688;28;20094;-65
2022/03/19 03:26:20;;;;;;;12.80;3.90;;;3.50;99.90;;;;;;4994194;28;20054;-65
2022/03/19 03:28:45;;;;;;;14.27;3.92;;;3.50;99.90;;;;;;4994116;28;20129;-64
2022/03/19 03:31:11;;;;;;;12.98;4.20;;;3.50;99.90;;;;;;4994593;28;20108;-65
2022/03/19 03:33:37;;;;;;;14.55;3.95;;;3.50;99.90;;;;;;4994665;28;20049;-64
2022/03/19 03:36:03;;;;;;;13.57;4.40;;;3.40;99.90;;;;;;4995547;28;20116;-64
2022/03/19 03:38:29;;;;;;;15.57;4.75;;;3.40;99.90;;;;;;4993567;28;20111;-65
2022/03/19 03:40:54;;;;;;;14.27;4.38;;;3.40;99.90;;;;;;4994900;28;20055;-64
2022/03/19 03:43:20;;;;;;;13.82;4.75;;;3.30;99.90;;;;;;4974515;28;20051;-64
2022/03/19 03:45:46;;;;;;;16.25;4.60;;;3.30;99.90;;;;;;4976600;28;20051;-64
2022/03/19 03:48:11;;;;;;;11.35;4.15;;;3.30;99.90;;;;;;4974480;28;20418;-65
2022/03/19 03:50:37;;;;;;;15.57;5.85;;;3.20;99.90;;;;;;4976212;28;20055;-65
2022/03/19 03:53:04;;;;;;;15.45;5.22;;;3.20;99.90;;;;;;4978791;28;20061;-64
2022/03/19 03:55:31;;;;;;;12.68;4.72;;;3.20;99.90;;;;;;4994574;28;20050;-64
2022/03/19 03:57:57;;;;;;;17.00;5.40;;;3.10;99.90;;;;;;4993203;28;20495;-65
2022/03/19 04:00:23;;;;;;;11.05;4.20;;;3.10;99.90;;;;;;4995453;28;20101;-64
2022/03/19 04:02:48;;;;;;;12.68;4.78;;;3.00;99.90;;;;;;4993701;28;20054;-64
2022/03/19 04:05:14;;;;;;;14.00;4.45;;;3.00;99.90;;;;;;4993768;28;20062;-64
2022/03/19 04:07:39;;;;;;;16.92;4.10;;;3.00;99.90;;;;;;4993112;28;20042;-65
2022/03/19 04:10:06;;;;;;;12.60;4.32;;;2.90;99.90;;;;;;4993971;28;20108;-64
2022/03/19 04:12:31;;;;;;;12.75;4.50;;;2.90;99.90;;;;;;4993260;28;20058;-64
2022/03/19 04:14:57;;;;;;;13.43;5.53;;;3.00;99.90;;;;;;4993923;28;20062;-63
2022/03/19 04:17:22;;;;;;;15.25;4.68;;;3.00;99.90;;;;;;4993531;28;20070;-64
2022/03/19 04:19:48;;;;;;;17.30;5.65;;;3.00;99.90;;;;;;4993531;28;20096;-64
2022/03/19 04:22:14;;;;;;;11.82;4.55;;;3.00;99.90;;;;;;4992679;28;20058;-65
2022/03/19 04:24:39;;;;;;;12.40;5.43;;;3.10;99.90;;;;;;4994659;28;20046;-65
2022/03/19 04:27:05;;;;;;;12.00;4.72;;;3.10;99.90;;;;;;4993331;28;20417;-64
2022/03/19 04:29:30;;;;;;;13.73;5.10;;;3.10;99.90;;;;;;4993473;28;20046;-64
2022/03/19 04:31:57;;;;;;;10.02;4.50;;;3.10;99.90;;;;;;4993568;28;20545;-65
2022/03/19 04:34:23;;;;;;;12.73;4.47;;;3.10;99.90;;;;;;4993425;28;20418;-65
2022/03/19 04:36:48;;;;;;;13.68;4.28;;;3.10;99.90;;;;;;4992517;28;20053;-64
2022/03/19 04:39:14;;;;;;;15.73;5.72;;;3.10;99.90;;;;;;4994352;28;20046;-64
2022/03/19 04:41:41;;;;;;;12.00;4.82;;;3.10;99.90;;;;;;4992094;28;20069;-63
2022/03/19 04:44:07;;;;;;;11.75;5.10;;;3.10;99.90;;;;;;4993526;28;20054;-64
2022/03/19 04:46:33;;;;;;;16.55;5.15;;;3.10;99.90;;;;;;4993240;28;20079;-64
2022/03/19 04:48:59;;;;;;;17.13;4.93;;;3.00;99.90;;;;;;4993056;28;20052;-65
2022/03/19 04:51:39;;;;;;;12.57;5.28;;;3.00;99.90;;;;;;4993330;28;20046;-63
2022/03/19 04:54:05;;;;;;;10.80;4.53;;;3.00;99.90;;;;;;4992432;28;20054;-64
2022/03/19 04:56:31;;;;;;;14.13;4.75;;;3.00;99.90;;;;;;5005350;28;20121;-64
2022/03/19 04:58:59;;;;;;;12.13;4.82;;;3.00;99.90;;;;;;4975207;28;20050;-64
2022/03/19 05:01:30;;;;;;;16.33;5.13;;;3.00;99.90;;;;;;5006614;28;20051;-63
2022/03/19 05:03:56;;;;;;;11.80;4.90;;;3.00;99.90;;;;;;4973342;28;20051;-64
2022/03/19 05:06:21;;;;;;;14.65;5.00;;;3.00;99.90;;;;;;4974022;28;20050;-64
2022/03/19 05:11:12;;;;;;;12.85;5.35;;;3.00;99.90;;;;;;4978188;28;20069;-64
2022/03/19 05:11:34;;;;;;;14.88;5.30;;;3.00;99.90;;;;;;4992072;28;20050;-64
2022/03/19 05:13:59;;;;;;;13.27;4.32;;;3.00;99.90;;;;;;4993639;28;20058;-64
2022/03/19 05:16:25;;;;;;;13.40;5.38;;;3.00;99.90;;;;;;4992259;28;20061;-64
2022/03/19 05:18:51;;;;;;;15.48;4.70;;;3.00;99.90;;;;;;4993566;28;20054;-64
2022/03/19 05:21:17;;;;;;;13.80;5.00;;;3.00;99.90;;;;;;4993259;28;20055;-64
2022/03/19 05:23:45;;;;;;;13.13;4.88;;;3.00;99.90;;;;;;4993496;28;20069;-64
2022/03/19 05:26:11;;;;;;;14.35;4.40;;;3.10;99.90;;;;;;4992395;28;20046;-65
2022/03/19 05:28:36;;;;;;;14.68;5.22;;;3.10;99.90;;;;;;4992179;28;20080;-65
2022/03/19 05:31:03;;;;;;;16.00;4.95;;;3.10;99.90;;;;;;4992274;28;20491;-64
2022/03/19 05:36:13;;;;;;;16.40;5.75;;;3.10;99.90;;;;;;4992734;28;20054;-63
2022/03/19 05:38:40;;;;;;;12.95;4.85;;;3.10;99.90;;;;;;4991822;28;20054;-65
2022/03/19 05:41:06;;;;;;;12.88;4.40;;;3.10;99.90;;;;;;4991502;28;20129;-63
2022/03/19 05:43:31;;;;;;;13.82;5.20;;;3.20;99.90;;;;;;4991987;28;20129;-64
2022/03/19 05:45:57;;;;;;;11.07;5.53;;;3.20;99.90;;;;;;4992205;28;20058;-64
2022/03/19 05:48:23;;;;;;;12.68;4.93;;;3.20;99.90;;;;;;5007698;28;20054;-64
2022/03/19 05:50:48;;;;;;;11.95;5.15;;;3.20;99.90;;;;;;4992722;28;20047;-64
2022/03/19 05:53:14;;;;;;;14.75;4.47;;;3.30;99.90;;;;;;4993125;28;20392;-64
2022/03/19 05:55:39;;;;;;;14.07;5.35;;;3.30;99.90;;;;;;4992888;28;20419;-64
2022/03/19 05:58:05;;;;;;;18.35;5.38;;;3.30;99.90;;;;;;4975351;28;20532;-64
2022/03/19 06:00:31;;;;;;;11.30;5.43;;;3.30;99.90;;;;;;4994184;28;20054;-64
2022/03/19 06:02:56;;;;;;;14.25;4.93;;;3.40;99.90;;;;;;4995653;28;20129;-64
2022/03/19 06:05:22;;;;;;;17.27;5.65;;;3.40;99.90;;;;;;4996015;28;20102;-64
2022/03/19 06:07:47;;;;;;;12.63;4.82;;;3.40;99.90;;;;;;4995760;28;20089;-64
2022/03/19 06:10:14;;;;;;;13.50;5.78;;;3.40;99.90;;;;;;4995658;28;20148;-64
2022/03/19 06:12:40;;;;;;;15.73;5.75;;;3.50;99.90;;;;;;4985502;28;20070;-65
2022/03/19 06:15:07;;;;;;;13.65;5.30;;;3.50;99.90;;;;;;4977068;28;20102;-64
2022/03/19 06:17:32;;;;;;;12.10;5.20;;;3.50;99.90;;;;;;4994422;28;20069;-64
2022/03/19 06:19:58;;;;;;;13.02;5.18;;;3.50;99.90;;;;;;4996135;28;20050;-65
2022/03/19 06:22:23;;;;;;;17.75;5.47;;;3.50;99.90;;;;;;4995854;28;20394;-64
2022/03/19 06:24:49;;;;;;;14.00;6.03;;;3.60;99.90;;;;;;4996496;28;20080;-63
2022/03/19 06:27:15;;;;;;;18.35;5.97;;;3.60;99.90;;;;;;4986619;28;20475;-64
2022/03/19 06:29:40;;;;;;;19.65;5.40;;;3.70;99.90;;;;;;4986502;28;20054;-64
2022/03/19 06:32:06;;;;;;;15.38;6.55;;;3.70;99.90;;;;;;4992530;28;20443;-65
2022/03/19 06:34:32;;;;;;;13.75;5.68;;;3.70;99.90;;;;;;4996167;28;20054;-65
2022/03/19 06:39:43;;;;;;;12.63;5.05;;;3.90;99.90;;;;;;4996692;28;20487;-67
2022/03/19 06:42:09;;;;;;;15.15;5.68;;;3.80;99.90;;;;;;5011139;28;20137;-66
2022/03/19 06:44:35;;;;;;;16.67;5.63;;;3.90;99.90;;;;;;4995372;28;20058;-65
2022/03/19 06:47:01;;;;;;;14.30;5.82;;;3.90;99.90;;;;;;4995096;28;20101;-67
2022/03/19 06:49:28;;;;;;;14.48;5.63;;;4.00;99.90;;;;;;4987636;28;20051;-65
2022/03/19 06:51:54;;;;;;;12.82;5.38;;;4.00;99.90;;;;;;4980829;28;20073;-65
2022/03/19 06:54:20;;;;;;;13.02;6.03;;;4.10;99.90;;;;;;5002009;28;20046;-66
2022/03/19 06:56:45;;;;;;;17.23;5.97;;;4.10;99.90;;;;;;4994057;28;20109;-65
2022/03/19 06:59:11;;;;;;;20.38;5.65;;;4.20;99.90;;;;;;4990996;28;20343;-66
2022/03/19 07:01:37;;;;;;;12.45;5.53;;;4.20;99.90;;;;;;5003589;28;20104;-65
2022/03/19 07:04:03;;;;;;;16.67;6.40;;;4.30;99.90;;;;;;4987360;28;20061;-65
2022/03/19 07:06:31;;;;;;;18.05;6.53;;;4.30;99.90;;;;;;5005465;28;20141;-64
2022/03/19 07:08:57;;;;;;;9.70;5.50;;;4.30;99.90;;;;;;5004691;28;20054;-63
2022/03/19 07:11:23;;;;;;;14.80;6.10;;;4.40;99.90;;;;;;4990855;28;20050;-66
2022/03/19 07:13:48;;;;;;;11.40;5.47;;;4.40;99.90;;;;;;4988755;28;20050;-65
2022/03/19 07:16:15;;;;;;;14.25;5.53;;;4.50;99.90;;;;;;4990367;28;20058;-64
2022/03/19 07:18:42;;;;;;;16.15;5.70;;;4.60;99.90;;;;;;5000706;28;20051;-64
2022/03/19 07:21:09;;;;;;;16.25;5.82;;;4.70;99.90;;;;;;4987290;28;20060;-64
2022/03/19 07:23:35;;;;;;;15.50;5.82;;;4.70;99.90;;;;;;4984540;28;20180;-65
2022/03/19 07:26:01;;;;;;;13.32;5.78;;;4.80;99.90;;;;;;4994540;28;20057;-64
2022/03/19 07:28:27;;;;;;;14.07;5.90;;;4.90;99.90;;;;;;4993070;28;20050;-64
2022/03/19 07:30:53;;;;;;;14.68;6.45;;;5.00;99.90;;;;;;5010377;28;20105;-66
2022/03/19 07:33:18;;;;;;;16.05;6.30;;;5.10;99.90;;;;;;4995440;28;20047;-65
2022/03/19 07:35:44;;;;;;;17.50;6.38;;;5.20;99.90;;;;;;4993982;28;20042;-65
2022/03/19 07:38:13;;;;;;;15.00;6.10;;;5.30;99.90;;;;;;4982370;28;20078;-64
2022/03/19 07:43:24;;;;;;;13.90;5.40;;;5.50;99.90;;;;;;4992686;28;20057;-66
2022/03/19 07:45:50;;;;;;;13.05;5.65;;;5.60;99.90;;;;;;4992781;28;20046;-65
2022/03/19 07:48:16;;;;;;;15.00;6.43;;;5.70;99.90;;;;;;4991786;28;20054;-64
2022/03/19 07:50:42;;;;;;;18.05;5.93;;;5.80;99.90;;;;;;4992822;28;20054;-65
2022/03/19 07:53:08;;;;;;;16.23;5.47;;;5.90;99.90;;;;;;4993132;28;20058;-65
2022/03/19 07:55:34;;;;;;;18.33;6.47;;;6.10;99.90;;;;;;4993220;28;20042;-64
2022/03/19 07:58:00;;;;;;;16.95;5.55;;;6.10;99.90;;;;;;4993281;28;20489;-63
2022/03/19 08:00:26;;;;;;;14.00;5.57;;;6.20;99.90;;;;;;4992741;28;20185;-65
2022/03/19 08:02:52;;;;;;;13.05;5.63;;;6.40;99.90;;;;;;4993695;28;20050;-64
2022/03/19 08:05:17;;;;;;;12.70;5.45;;;6.40;99.90;;;;;;4994164;28;20482;-65
2022/03/19 08:07:43;;;;;;;13.13;5.35;;;6.60;99.90;;;;;;4993394;28;20050;-64
2022/03/19 08:10:10;;;;;;;14.10;5.32;;;6.70;99.90;;;;;;4993391;28;20192;-64
2022/03/19 08:12:36;;;;;;;13.93;5.13;;;6.80;99.90;;;;;;4992961;28;20058;-64
2022/03/19 08:15:07;;;;;;;11.10;5.18;;;7.00;99.90;;;;;;4993566;28;20170;-65
2022/03/19 08:17:33;;;;;;;12.93;5.25;;;7.10;99.90;;;;;;4976274;28;20054;-64
2022/03/19 08:19:59;;;;;;;13.77;6.05;;;7.20;99.90;;;;;;4979732;28;20064;-64
2022/03/19 08:22:28;;;;;;;11.90;5.63;;;7.30;99.90;;;;;;4993436;28;20521;-65
2022/03/19 08:24:54;;;;;;;14.95;4.60;;;7.40;99.90;;;;;;4993674;28;20058;-66
2022/03/19 08:27:23;;;;;;;12.18;4.10;;;7.50;99.90;;;;;;4969829;28;20121;-65
2022/03/19 08:29:51;;;;;;;12.88;4.97;;;7.60;99.90;;;;;;4992213;28;20506;-64
2022/03/19 08:32:16;;;;;;;15.15;5.97;;;7.80;99.90;;;;;;4992286;28;20054;-65
2022/03/19 08:34:44;;;;;;;9.85;4.18;;;7.90;99.90;;;;;;4992264;28;20038;-64
2022/03/19 08:37:10;;;;;;;12.98;3.95;;;7.90;99.90;;;;;;4993182;28;20121;-66
2022/03/19 08:42:22;;;;;;;16.83;4.20;;;8.10;99.90;;;;;;4991130;28;20057;-64
2022/03/19 08:44:48;;;;;;;15.63;4.70;;;8.20;99.90;;;;;;4993332;28;20137;-65
2022/03/19 08:47:13;;;;;;;10.48;3.95;;;8.30;99.90;;;;;;4993478;28;20506;-64
2022/03/19 08:49:39;;;;;;;14.90;4.60;;;8.40;99.90;;;;;;4993241;28;20068;-65
2022/03/19 08:52:05;;;;;;;11.25;3.28;;;8.40;99.90;;;;;;4992988;28;20479;-64
2022/03/19 08:54:30;;;;;;;10.80;3.17;;;8.60;99.90;;;;;;4973956;28;20053;-64
2022/03/19 08:56:56;;;;;;;12.32;3.70;;;8.60;99.90;;;;;;4986770;28;20402;-65
2022/03/19 08:59:21;;;;;;;11.13;3.42;;;8.80;99.90;;;;;;4987134;28;20479;-64
2022/03/19 09:01:50;;;;;;;10.07;3.20;;;8.90;99.90;;;;;;4981275;28;20042;-66
2022/03/19 09:04:16;;;;;;;11.07;3.25;;;9.00;99.90;;;;;;4984308;28;20324;-63
2022/03/19 09:06:42;;;;;;;14.38;3.95;;;9.00;99.90;;;;;;4987189;28;20081;-65
2022/03/19 09:09:09;;;;;;;10.18;3.72;;;9.10;99.90;;;;;;4992045;28;20062;-65
2022/03/19 09:11:36;;;;;;;13.30;3.55;;;9.20;99.90;;;;;;5008373;28;20124;-64
2022/03/19 09:14:03;;;;;;;12.52;3.63;;;9.30;99.90;;;;;;4992348;28;20085;-64
2022/03/19 09:16:29;;;;;;;10.95;2.55;;;9.40;99.90;;;;;;4991984;28;20058;-65
2022/03/19 09:18:56;;;;;;;9.15;2.55;;;9.50;99.90;;;;;;4991476;28;20502;-65
2022/03/19 09:21:22;;;;;;;10.93;2.85;;;9.60;99.90;;;;;;4986309;28;20585;-66
2022/03/19 09:23:49;;;;;;;8.95;3.13;;;9.60;99.90;;;;;;4982687;28;20050;-64
2022/03/19 09:26:16;;;;;;;14.68;2.88;;;9.60;99.90;;;;;;4982984;28;20383;-63
2022/03/19 09:28:42;;;;;;;9.50;2.90;;;9.60;99.90;;;;;;5008313;28;20474;-64
2022/03/19 09:31:08;;;;;;;6.90;2.85;;;9.60;99.90;;;;;;4982316;28;20438;-65
2022/03/19 09:33:34;;;;;;;9.52;2.80;;;9.70;99.90;;;;;;4983041;28;20047;-64
2022/03/19 09:36:01;;;;;;;7.32;2.70;;;9.70;99.90;;;;;;4989871;28;20101;-65
2022/03/19 09:38:30;;;;;;;14.88;3.17;;;9.80;99.90;;;;;;4983124;28;20053;-66
2022/03/19 09:40:56;;;;;;;9.07;3.83;;;9.90;99.90;;;;;;4968181;28;20070;-64
2022/03/19 09:43:23;;;;;;;9.65;2.88;;;10.00;99.90;;;;;;4992989;28;20058;-64
2022/03/19 09:45:49;;;;;;;7.50;3.28;;;10.20;99.90;;;;;;4980515;28;20121;-65
2022/03/19 09:48:14;;;;;;;12.13;3.08;;;10.20;99.90;;;;;;4974550;28;20130;-64
2022/03/19 09:50:40;;;;;;;7.90;2.40;;;10.30;99.90;;;;;;4984596;28;20057;-66
2022/03/19 09:53:06;;;;;;;10.38;2.88;;;10.40;99.90;;;;;;4972785;28;20057;-67
2022/03/19 09:55:37;;;;;;;9.00;2.90;;;10.50;99.90;;;;;;4972667;28;20077;-67
2022/03/19 09:58:03;;;;;;;9.38;2.70;;;10.50;99.90;;;;;;4975705;28;20058;-66
2022/03/19 10:00:28;;;;;;;7.82;2.42;;;10.60;99.90;;;;;;5007151;28;20050;-67
2022/03/19 10:02:56;;;;;;;9.95;2.78;;;10.50;99.90;;;;;;4987751;28;20054;-65
2022/03/19 10:10:53;;;;;;;8.30;2.72;;;10.60;98.00;;;;;;4982363;28;20487;-64
2022/03/19 10:13:18;;;;;;;5.40;2.35;;;10.70;95.80;;;;;;4974124;28;20400;-66
2022/03/19 10:15:44;;;;;;;7.40;2.47;;;10.80;95.60;;;;;;4991121;28;20046;-65
2022/03/19 10:18:10;;;;;;;14.20;3.25;;;10.90;96.60;;;;;;4990929;28;20101;-66
2022/03/19 10:20:37;;;;;;;7.53;2.80;;;10.90;93.40;;;;;;4990876;28;20569;-64
2022/03/19 10:23:03;;;;;;;7.70;2.78;;;10.90;90.90;;;;;;4988943;28;20133;-66
2022/03/19 10:25:30;;;;;;;7.65;2.53;;;10.90;92.90;;;;;;5007198;28;20117;-66
2022/03/19 10:28:08;;;;;;;8.40;3.22;;;11.10;93.30;;;;;;4990958;28;20062;-64
2022/03/19 10:30:39;;;;;;;6.97;2.78;;;11.10;85.20;;;;;;4989983;28;20054;-65
2022/03/19 10:33:08;;;;;;;6.38;2.33;;;11.20;83.90;;;;;;4991092;28;20078;-66
2022/03/19 10:35:38;;;;;;;9.65;2.75;;;11.20;79.40;;;;;;4991208;28;20069;-65
2022/03/19 10:38:22;;;;;;;8.27;2.35;;;11.20;76.90;;;;;;4985482;28;20046;-66
2022/03/19 10:40:48;;;;;;;8.07;2.35;;;11.30;69.80;;;;;;4992621;28;20137;-65
2022/03/19 10:43:18;;;;;;;6.32;2.35;;;11.40;71.40;;;;;;4990505;28;20133;-65
2022/03/19 10:45:49;;;;;;;5.60;2.35;;;11.40;70.10;;;;;;4992421;28;20393;-65
2022/03/19 10:48:23;;;;;;;8.52;2.33;;;11.40;69.80;;;;;;4977569;28;20038;-66
2022/03/19 10:50:51;;;;;;;6.43;2.28;;;11.50;68.40;;;;;;4977293;28;20055;-65
2022/03/19 10:53:18;;;;;;;5.43;1.85;;;11.60;68.20;;;;;;4987055;28;20050;-66
2022/03/19 10:55:44;;;;;;;6.82;2.33;;;11.50;65.90;;;;;;4993388;28;20054;-65
2022/03/19 10:58:10;;;;;;;8.88;1.98;;;11.60;64.80;;;;;;4985181;28;20504;-66
2022/03/19 11:00:36;;;;;;;7.95;2.65;;;11.60;65.20;;;;;;4984635;28;20050;-66
2022/03/19 11:03:12;;;;;;;8.20;1.85;;;11.70;65.50;;;;;;4991877;28;20053;-65
2022/03/19 11:05:39;;;;;;;8.05;2.50;;;11.70;63.90;;;;;;4995511;28;20522;-66
2022/03/19 11:08:07;;;;;;;9.35;2.60;;;11.70;64.70;;;;;;5009976;28;20065;-65
2022/03/19 11:10:35;;;;;;;3.63;2.00;;;11.80;64.40;;;;;;4992571;28;20053;-67
2022/03/19 11:13:02;;;;;;;3.17;1.90;;;11.90;64.50;;;;;;4993955;28;20109;-66
2022/03/19 11:15:32;;;;;;;4.28;1.42;;;11.90;64.30;;;;;;4994122;28;20046;-64
2022/03/19 11:18:01;;;;;;;5.35;1.60;;;12.00;61.20;;;;;;5010719;28;20058;-65
2022/03/19 11:20:27;;;;;;;3.63;1.88;;;12.10;59.10;;;;;;4993164;28;20062;-65
2022/03/19 11:22:58;;;;;;;5.22;1.83;;;12.10;58.60;;;;;;4994689;28;20073;-67
2022/03/19 11:25:26;;;;;;;4.35;1.63;;;12.10;57.20;;;;;;4993232;28;20107;-66
2022/03/19 11:28:05;;;;;;;6.53;2.03;;;12.00;57.60;;;;;;4993583;28;20054;-66
2022/03/19 11:30:37;;;;;;;5.55;2.13;;;12.10;59.00;;;;;;4998734;28;20495;-65
2022/03/19 11:33:05;;;;;;;5.93;2.30;;;12.20;59.60;;;;;;4976252;28;20066;-66
2022/03/19 11:35:39;;;;;;;4.63;1.92;;;12.30;60.90;;;;;;4987013;28;20081;-66
2022/03/19 11:38:14;;;;;;;5.75;1.80;;;12.30;59.30;;;;;;5008525;28;20050;-66
2022/03/19 11:40:53;;;;;;;3.92;2.00;;;12.20;58.20;;;;;;4986573;28;20137;-66
2022/03/19 11:43:26;;;;;;;5.32;2.00;;;12.30;59.80;;;;;;4985857;28;20104;-65
2022/03/19 11:45:55;;;;;;;3.70;1.95;;;12.30;57.50;;;;;;4975491;28;20055;-64
2022/03/19 11:48:36;;;;;;;4.80;2.05;;;12.30;57.70;;;;;;4964744;28;20046;-64
2022/03/19 11:51:25;;;;;;;4.10;1.55;;;12.20;55.80;;;;;;4978146;28;20050;-65
2022/03/19 11:54:06;;;;;;;2.33;1.40;;;12.30;55.80;;;;;;4993818;28;20058;-66
2022/03/19 11:56:41;;;;;;;5.03;1.70;;;12.30;56.50;;;;;;4982860;28;20051;-64
2022/03/19 11:59:21;;;;;;;4.80;1.67;;;12.30;56.30;;;;;;4984345;28;20054;-65
2022/03/19 12:01:55;;;;;;;4.72;1.65;;;12.40;55.20;;;;;;4986766;28;20050;-66
2022/03/19 12:04:22;;;;;;;5.07;1.83;;;12.40;55.30;;;;;;5007925;28;20424;-66
2022/03/19 12:06:53;;;;;;;5.15;1.95;;;12.40;54.50;;;;;;5009827;28;20062;-65
2022/03/19 12:09:19;;;;;;;3.75;1.55;;;12.40;53.70;;;;;;4982883;28;20113;-65
2022/03/19 12:12:07;;;;;;;2.88;1.48;;;12.50;54.20;;;;;;5006002;28;20062;-65
2022/03/19 12:14:34;;;;;;;3.97;1.67;;;12.50;54.10;;;;;;5004969;28;20089;-66
2022/03/19 12:17:20;;;;;;;4.18;1.30;;;12.70;54.80;;;;;;4986894;28;20483;-65
2022/03/19 12:20:07;;;;;;;7.30;2.22;;;12.80;53.90;;;;;;5006033;28;20051;-66
2022/03/19 12:22:41;;;;;;;5.82;1.60;;;12.80;52.00;;;;;;4987806;28;20121;-65
2022/03/19 12:25:14;;;;;;;4.40;1.60;;;12.80;53.60;;;;;;4993832;28;20105;-66
2022/03/19 12:27:52;;;;;;;1.83;1.20;;;12.60;52.30;;;;;;4988320;28;20137;-66
2022/03/19 12:30:18;;;;;;;2.92;1.30;;;12.70;53.20;;;;;;4980825;28;20514;-65
2022/03/19 12:32:54;;;;;;;4.40;1.67;;;12.60;53.70;;;;;;4984062;28;20055;-65
2022/03/19 12:35:25;;;;;;;3.30;1.27;;;12.70;53.00;;;;;;4991862;28;20144;-65
2022/03/19 12:37:55;;;;;;;3.42;1.40;;;12.70;53.30;;;;;;4994929;28;20062;-64
2022/03/19 12:40:26;;;;;;;3.95;1.40;;;12.80;53.30;;;;;;4993378;28;20054;-65
2022/03/19 12:43:00;;;;;;;3.30;1.40;;;12.80;52.60;;;;;;4990251;28;20490;-65
2022/03/19 12:45:40;;;;;;;3.50;1.73;;;12.60;52.40;;;;;;4961228;28;20050;-66
2022/03/19 12:48:13;;;;;;;3.60;1.42;;;12.60;53.20;;;;;;4994304;28;20047;-66
2022/03/19 12:50:41;;;;;;;2.85;1.50;;;12.70;53.40;;;;;;4993077;28;20487;-65
2022/03/19 12:53:06;;;;;;;4.38;1.70;;;12.70;52.40;;;;;;4992887;28;20422;-65
2022/03/19 12:55:32;;;;;;;2.67;1.50;;;12.70;52.30;;;;;;4992659;28;20047;-65
2022/03/19 12:58:01;;;;;;;5.32;1.73;;;12.70;52.10;;;;;;4975019;28;20426;-65
2022/03/19 13:00:27;;;;;;;7.90;1.75;;;12.80;53.10;;;;;;4979768;28;20100;-67
2022/03/19 13:02:54;;;;;;;5.72;1.48;;;12.90;53.30;;;;;;5005642;28;20062;-66
2022/03/19 13:05:21;;;;;;;3.25;1.50;;;12.90;53.10;;;;;;4990814;28;20092;-65
2022/03/19 13:08:03;;;;;;;3.78;1.55;;;12.80;53.00;;;;;;4986747;28;20261;-66